sensor_id;sensor_type;location;lat;lon;timestamp;pressure;altitude;pressure_sealevel;temperature;humidity
64192;BME280;50497;50.720;-2.084;2023-02-16T00:01:53;102393.91;;;7.11;100.00
64192;BME280;50497;50.720;-2.084;2023-02-16T00:04:30;102377.06;;;7.11;100.00
64192;BME280;50497;50.720;-2.084;2023-02-16T00:07:03;102365.59;;;7.06;100.00
64192;BME280;50497;50.720;-2.084;2023-02-16T00:09:30;102390.38;;;7.11;100.00
64192;BME280;50497;50.720;-2.084;2023-02-16T00:11:56;102384.13;;;7.18;100.00
64192;BME280;50497;50.720;-2.084;2023-02-16T00:14:44;102390.31;;;7.20;100.00
64192;BME280;50497;50.720;-2.084;2023-02-16T00:17:17;102389.44;;;7.18;100.00
64192;BME280;50497;50.720;-2.084;2023-02-16T00:19:50;102373.53;;;7.09;100.00
64192;BME280;50497;50.720;-2.084;2023-02-16T00:22:19;102371.66;;;7.20;100.00
64192;BME280;50497;50.720;-2.084;2023-02-16T00:24:45;102369.97;;;7.11;100.00
64192;BME280;50497;50.720;-2.084;2023-02-16T00:27:22;102372.53;;;7.22;100.00
64192;BME280;50497;50.720;-2.084;2023-02-16T00:30:15;102379.63;;;7.23;100.00
64192;BME280;50497;50.720;-2.084;2023-02-16T00:32:49;102375.19;;;7.24;100.00
64192;BME280;50497;50.720;-2.084;2023-02-16T00:35:22;102372.50;;;7.27;100.00
64192;BME280;50497;50.720;-2.084;2023-02-16T00:37:55;102370.78;;;7.22;100.00
64192;BME280;50497;50.720;-2.084;2023-02-16T00:40:29;102368.16;;;7.18;100.00
64192;BME280;50497;50.720;-2.084;2023-02-16T00:43:00;102363.66;;;7.25;100.00
64192;BME280;50497;50.720;-2.084;2023-02-16T00:45:26;102354.84;;;7.16;100.00
64192;BME280;50497;50.720;-2.084;2023-02-16T00:47:56;102345.00;;;7.28;100.00
64192;BME280;50497;50.720;-2.084;2023-02-16T00:50:36;102350.31;;;7.28;100.00
64192;BME280;50497;50.720;-2.084;2023-02-16T00:53:12;102352.13;;;7.24;100.00
64192;BME280;50497;50.720;-2.084;2023-02-16T00:55:47;102347.72;;;7.17;100.00
64192;BME280;50497;50.720;-2.084;2023-02-16T00:58:30;102345.00;;;7.26;100.00
64192;BME280;50497;50.720;-2.084;2023-02-16T01:01:15;102333.50;;;7.22;100.00
64192;BME280;50497;50.720;-2.084;2023-02-16T01:03:44;102334.38;;;7.21;100.00
64192;BME280;50497;50.720;-2.084;2023-02-16T01:06:17;102333.50;;;7.22;100.00
64192;BME280;50497;50.720;-2.084;2023-02-16T01:09:13;102317.56;;;7.19;100.00
64192;BME280;50497;50.720;-2.084;2023-02-16T01:12:15;102319.41;;;7.11;100.00
64192;BME280;50497;50.720;-2.084;2023-02-16T01:14:56;102314.06;;;7.14;100.00
64192;BME280;50497;50.720;-2.084;2023-02-16T01:17:25;102314.94;;;7.15;100.00
64192;BME280;50497;50.720;-2.084;2023-02-16T01:19:56;102307.81;;;7.14;100.00
64192;BME280;50497;50.720;-2.084;2023-02-16T01:22:26;102313.13;;;7.17;100.00
64192;BME280;50497;50.720;-2.084;2023-02-16T01:24:52;102319.38;;;7.13;100.00
64192;BME280;50497;50.720;-2.084;2023-02-16T01:27:17;102310.44;;;7.18;100.00
64192;BME280;50497;50.720;-2.084;2023-02-16T01:29:47;102321.09;;;7.21;100.00
64192;BME280;50497;50.720;-2.084;2023-02-16T01:32:15;102319.34;;;7.20;100.00
64192;BME280;50497;50.720;-2.084;2023-02-16T01:34:46;102329.06;;;7.20;100.00
64192;BME280;50497;50.720;-2.084;2023-02-16T01:37:15;102323.75;;;7.23;100.00
64192;BME280;50497;50.720;-2.084;2023-02-16T01:39:50;102327.28;;;7.24;100.00
64192;BME280;50497;50.720;-2.084;2023-02-16T01:42:29;102322.84;;;7.26;100.00
64192;BME280;50497;50.720;-2.084;2023-02-16T01:45:08;102331.75;;;7.20;100.00
64192;BME280;50497;50.720;-2.084;2023-02-16T01:47:52;102331.72;;;7.23;100.00
64192;BME280;50497;50.720;-2.084;2023-02-16T01:50:29;102323.78;;;7.15;100.00
64192;BME280;50497;50.720;-2.084;2023-02-16T01:53:05;102320.22;;;7.19;100.00
64192;BME280;50497;50.720;-2.084;2023-02-16T01:55:39;102326.41;;;7.20;100.00
64192;BME280;50497;50.720;-2.084;2023-02-16T02:03:44;102352.97;;;7.31;100.00
64192;BME280;50497;50.720;-2.084;2023-02-16T02:06:33;102351.19;;;7.30;100.00
64192;BME280;50497;50.720;-2.084;2023-02-16T02:09:07;102345.97;;;7.20;100.00
64192;BME280;50497;50.720;-2.084;2023-02-16T02:11:45;102344.16;;;7.24;100.00
64192;BME280;50497;50.720;-2.084;2023-02-16T02:14:18;102338.75;;;7.32;100.00
64192;BME280;50497;50.720;-2.084;2023-02-16T02:17:02;102319.25;;;7.30;100.00
64192;BME280;50497;50.720;-2.084;2023-02-16T02:20:19;102320.06;;;7.36;100.00
64192;BME280;50497;50.720;-2.084;2023-02-16T02:23:11;102323.63;;;7.35;100.00
64192;BME280;50497;50.720;-2.084;2023-02-16T02:28:52;102324.41;;;7.48;100.00
64192;BME280;50497;50.720;-2.084;2023-02-16T02:31:31;102333.13;;;7.66;100.00
64192;BME280;50497;50.720;-2.084;2023-02-16T02:37:15;102364.03;;;7.84;100.00
64192;BME280;50497;50.720;-2.084;2023-02-16T02:45:47;102379.81;;;8.07;100.00
64192;BME280;50497;50.720;-2.084;2023-02-16T02:48:18;102378.84;;;8.12;100.00
64192;BME280;50497;50.720;-2.084;2023-02-16T02:50:51;102385.06;;;8.11;100.00
64192;BME280;50497;50.720;-2.084;2023-02-16T02:53:45;102389.44;;;8.19;100.00
64192;BME280;50497;50.720;-2.084;2023-02-16T02:56:18;102376.97;;;8.22;100.00
64192;BME280;50497;50.720;-2.084;2023-02-16T02:59:07;102368.16;;;8.14;100.00
64192;BME280;50497;50.720;-2.084;2023-02-16T03:01:56;102372.44;;;8.27;100.00
64192;BME280;50497;50.720;-2.084;2023-02-16T03:04:27;102376.00;;;8.28;100.00
64192;BME280;50497;50.720;-2.084;2023-02-16T03:06:56;102369.81;;;8.26;100.00
64192;BME280;50497;50.720;-2.084;2023-02-16T03:09:24;102375.19;;;8.20;100.00
64192;BME280;50497;50.720;-2.084;2023-02-16T03:12:02;102377.03;;;8.16;100.00
64192;BME280;50497;50.720;-2.084;2023-02-16T03:14:55;102385.78;;;8.27;100.00
64192;BME280;50497;50.720;-2.084;2023-02-16T03:17:31;102378.78;;;8.20;100.00
64192;BME280;50497;50.720;-2.084;2023-02-16T03:20:19;102391.09;;;8.30;100.00
64192;BME280;50497;50.720;-2.084;2023-02-16T03:23:07;102391.09;;;8.30;100.00
64192;BME280;50497;50.720;-2.084;2023-02-16T03:25:53;102371.59;;;8.24;100.00
64192;BME280;50497;50.720;-2.084;2023-02-16T03:28:40;102370.81;;;8.17;100.00
64192;BME280;50497;50.720;-2.084;2023-02-16T03:31:32;102392.00;;;8.26;100.00
64192;BME280;50497;50.720;-2.084;2023-02-16T03:34:04;102383.97;;;8.29;100.00
64192;BME280;50497;50.720;-2.084;2023-02-16T03:36:35;102383.97;;;8.29;100.00
64192;BME280;50497;50.720;-2.084;2023-02-16T03:39:06;102396.38;;;8.33;100.00
64192;BME280;50497;50.720;-2.084;2023-02-16T03:41:40;102366.31;;;8.19;100.00
64192;BME280;50497;50.720;-2.084;2023-02-16T03:44:09;102329.91;;;8.17;100.00
64192;BME280;50497;50.720;-2.084;2023-02-16T03:46:36;102310.44;;;8.10;100.00
64192;BME280;50497;50.720;-2.084;2023-02-16T03:49:05;102270.63;;;7.94;100.00
64192;BME280;50497;50.720;-2.084;2023-02-16T03:51:37;102214.63;;;7.99;100.00
64192;BME280;50497;50.720;-2.084;2023-02-16T03:54:02;102176.47;;;7.95;100.00
64192;BME280;50497;50.720;-2.084;2023-02-16T03:56:32;102136.56;;;7.91;100.00
64192;BME280;50497;50.720;-2.084;2023-02-16T03:59:00;102087.72;;;7.90;100.00
64192;BME280;50497;50.720;-2.084;2023-02-16T04:01:28;102028.31;;;7.84;100.00
64192;BME280;50497;50.720;-2.084;2023-02-16T04:03:58;101993.47;;;7.94;100.00
64192;BME280;50497;50.720;-2.084;2023-02-16T04:06:26;101950.09;;;7.86;100.00
64192;BME280;50497;50.720;-2.084;2023-02-16T04:09:00;101924.38;;;7.85;100.00
64192;BME280;50497;50.720;-2.084;2023-02-16T04:11:28;101909.09;;;7.93;100.00
64192;BME280;50497;50.720;-2.084;2023-02-16T04:14:12;101871.00;;;7.87;100.00
64192;BME280;50497;50.720;-2.084;2023-02-16T04:16:38;101868.97;;;8.03;100.00
64192;BME280;50497;50.720;-2.084;2023-02-16T04:19:10;101845.75;;;8.08;100.00
64192;BME280;50497;50.720;-2.084;2023-02-16T04:21:36;101810.28;;;8.06;100.00
64192;BME280;50497;50.720;-2.084;2023-02-16T04:24:05;101790.78;;;8.04;100.00
64192;BME280;50497;50.720;-2.084;2023-02-16T04:26:31;101787.97;;;8.10;100.00
64192;BME280;50497;50.720;-2.084;2023-02-16T04:29:00;101777.25;;;8.13;100.00
64192;BME280;50497;50.720;-2.084;2023-02-16T04:31:29;101756.91;;;8.09;100.00
64192;BME280;50497;50.720;-2.084;2023-02-16T04:34:03;101763.84;;;8.16;100.00
64192;BME280;50497;50.720;-2.084;2023-02-16T04:36:33;101750.66;;;8.10;100.00
64192;BME280;50497;50.720;-2.084;2023-02-16T04:39:05;101741.94;;;8.02;100.00
64192;BME280;50497;50.720;-2.084;2023-02-16T04:41:36;101755.97;;;8.10;100.00
64192;BME280;50497;50.720;-2.084;2023-02-16T04:44:10;101762.31;;;8.06;100.00
64192;BME280;50497;50.720;-2.084;2023-02-16T04:46:51;101765.69;;;8.14;100.00
64192;BME280;50497;50.720;-2.084;2023-02-16T04:49:27;101764.06;;;8.07;100.00
64192;BME280;50497;50.720;-2.084;2023-02-16T04:51:56;101768.44;;;8.09;100.00
64192;BME280;50497;50.720;-2.084;2023-02-16T04:54:27;101776.47;;;8.08;100.00
64192;BME280;50497;50.720;-2.084;2023-02-16T04:56:57;101791.53;;;8.10;100.00
64192;BME280;50497;50.720;-2.084;2023-02-16T04:59:22;101791.63;;;8.06;100.00
64192;BME280;50497;50.720;-2.084;2023-02-16T05:02:01;101800.56;;;8.02;100.00
64192;BME280;50497;50.720;-2.084;2023-02-16T05:04:37;101812.94;;;8.06;100.00
64192;BME280;50497;50.720;-2.084;2023-02-16T05:07:09;101834.28;;;8.04;100.00
64192;BME280;50497;50.720;-2.084;2023-02-16T05:09:48;101865.34;;;8.07;100.00
64192;BME280;50497;50.720;-2.084;2023-02-16T05:12:25;101893.75;;;8.08;100.00
64192;BME280;50497;50.720;-2.084;2023-02-16T05:15:12;101916.06;;;8.02;100.00
64192;BME280;50497;50.720;-2.084;2023-02-16T05:17:45;101937.34;;;8.05;100.00
64192;BME280;50497;50.720;-2.084;2023-02-16T05:20:18;101955.84;;;8.13;100.00
64192;BME280;50497;50.720;-2.084;2023-02-16T05:23:12;101972.78;;;8.10;100.00
64192;BME280;50497;50.720;-2.084;2023-02-16T05:25:51;101997.47;;;8.22;100.00
64192;BME280;50497;50.720;-2.084;2023-02-16T05:28:16;102018.66;;;8.29;100.00
64192;BME280;50497;50.720;-2.084;2023-02-16T05:30:49;102042.56;;;8.36;100.00
64192;BME280;50497;50.720;-2.084;2023-02-16T05:33:30;102059.28;;;8.48;100.00
64192;BME280;50497;50.720;-2.084;2023-02-16T05:36:06;102082.19;;;8.59;100.00
64192;BME280;50497;50.720;-2.084;2023-02-16T05:38:37;102101.63;;;8.67;100.00
64192;BME280;50497;50.720;-2.084;2023-02-16T05:41:09;102139.69;;;8.78;100.00
64192;BME280;50497;50.720;-2.084;2023-02-16T05:43:53;102147.59;;;8.81;100.00
64192;BME280;50497;50.720;-2.084;2023-02-16T05:46:29;102159.13;;;8.85;100.00
64192;BME280;50497;50.720;-2.084;2023-02-16T05:49:01;102165.31;;;8.87;100.00
64192;BME280;50497;50.720;-2.084;2023-02-16T05:51:27;102185.75;;;8.88;100.00
64192;BME280;50497;50.720;-2.084;2023-02-16T05:53:53;102211.50;;;8.91;100.00
64192;BME280;50497;50.720;-2.084;2023-02-16T05:56:23;102223.94;;;8.93;100.00
64192;BME280;50497;50.720;-2.084;2023-02-16T05:58:49;102225.75;;;8.90;100.00
64192;BME280;50497;50.720;-2.084;2023-02-16T06:01:19;102232.88;;;8.91;100.00
64192;BME280;50497;50.720;-2.084;2023-02-16T06:03:52;102256.88;;;8.92;100.00
64192;BME280;50497;50.720;-2.084;2023-02-16T06:06:25;102244.47;;;8.88;100.00
64192;BME280;50497;50.720;-2.084;2023-02-16T06:09:05;102255.22;;;8.85;100.00
64192;BME280;50497;50.720;-2.084;2023-02-16T06:11:35;102253.47;;;8.81;100.00
64192;BME280;50497;50.720;-2.084;2023-02-16T06:14:10;102256.97;;;8.86;100.00
64192;BME280;50497;50.720;-2.084;2023-02-16T06:16:38;102262.34;;;8.83;100.00
64192;BME280;50497;50.720;-2.084;2023-02-16T06:19:09;102263.28;;;8.80;100.00
64192;BME280;50497;50.720;-2.084;2023-02-16T06:21:36;102275.72;;;8.80;100.00
64192;BME280;50497;50.720;-2.084;2023-02-16T06:24:01;102274.84;;;8.81;100.00
64192;BME280;50497;50.720;-2.084;2023-02-16T06:26:32;102275.69;;;8.83;100.00
64192;BME280;50497;50.720;-2.084;2023-02-16T06:28:58;102275.66;;;8.84;100.00
64192;BME280;50497;50.720;-2.084;2023-02-16T06:31:27;102293.47;;;8.84;100.00
64192;BME280;50497;50.720;-2.084;2023-02-16T06:33:58;102299.72;;;8.83;100.00
64192;BME280;50497;50.720;-2.084;2023-02-16T06:36:26;102293.47;;;8.84;100.00
64192;BME280;50497;50.720;-2.084;2023-02-16T06:38:51;102286.47;;;8.77;100.00
64192;BME280;50497;50.720;-2.084;2023-02-16T06:41:17;102239.25;;;8.82;100.00
64192;BME280;50497;50.720;-2.084;2023-02-16T06:43:59;102233.88;;;8.83;100.00
64192;BME280;50497;50.720;-2.084;2023-02-16T06:46:25;102226.00;;;8.74;100.00
64192;BME280;50497;50.720;-2.084;2023-02-16T06:48:54;102258.75;;;8.87;100.00
64192;BME280;50497;50.720;-2.084;2023-02-16T06:51:23;102262.28;;;8.86;100.00
64192;BME280;50497;50.720;-2.084;2023-02-16T06:53:49;102276.53;;;8.86;100.00
64192;BME280;50497;50.720;-2.084;2023-02-16T06:56:19;102283.59;;;8.91;100.00
64192;BME280;50497;50.720;-2.084;2023-02-16T06:58:45;102300.47;;;8.91;100.00
64192;BME280;50497;50.720;-2.084;2023-02-16T07:01:10;102312.03;;;8.93;100.00
64192;BME280;50497;50.720;-2.084;2023-02-16T07:03:36;102327.97;;;8.96;100.00
64192;BME280;50497;50.720;-2.084;2023-02-16T07:06:06;102329.75;;;8.97;100.00
64192;BME280;50497;50.720;-2.084;2023-02-16T07:08:35;102350.13;;;9.01;100.00
64192;BME280;50497;50.720;-2.084;2023-02-16T07:11:00;102345.69;;;9.03;100.00
64192;BME280;50497;50.720;-2.084;2023-02-16T07:13:26;102356.38;;;9.03;100.00
64192;BME280;50497;50.720;-2.084;2023-02-16T07:15:54;102356.38;;;9.03;100.00
64192;BME280;50497;50.720;-2.084;2023-02-16T07:18:20;102410.53;;;9.12;100.00
64192;BME280;50497;50.720;-2.084;2023-02-16T07:20:50;102418.59;;;9.09;100.00
64192;BME280;50497;50.720;-2.084;2023-02-16T07:23:21;102454.97;;;9.16;100.00
64192;BME280;50497;50.720;-2.084;2023-02-16T07:25:55;102459.38;;;9.20;100.00
64192;BME280;50497;50.720;-2.084;2023-02-16T07:28:27;102457.63;;;9.16;100.00
64192;BME280;50497;50.720;-2.084;2023-02-16T07:30:57;102484.22;;;9.27;100.00
64192;BME280;50497;50.720;-2.084;2023-02-16T07:33:22;102477.06;;;9.27;100.00
64192;BME280;50497;50.720;-2.084;2023-02-16T07:35:48;102493.13;;;9.24;100.00
64192;BME280;50497;50.720;-2.084;2023-02-16T07:38:17;102492.19;;;9.28;100.00
64192;BME280;50497;50.720;-2.084;2023-02-16T07:40:45;102489.53;;;9.28;100.00
64192;BME280;50497;50.720;-2.084;2023-02-16T07:43:11;102501.06;;;9.32;100.00
64192;BME280;50497;50.720;-2.084;2023-02-16T07:45:45;102506.34;;;9.35;100.00
64192;BME280;50497;50.720;-2.084;2023-02-16T07:48:22;102519.69;;;9.36;100.00
64192;BME280;50497;50.720;-2.084;2023-02-16T07:50:52;102535.66;;;9.39;100.00
64192;BME280;50497;50.720;-2.084;2023-02-16T07:53:17;102521.47;;;9.34;100.00
64192;BME280;50497;50.720;-2.084;2023-02-16T07:55:47;102532.97;;;9.41;100.00
64192;BME280;50497;50.720;-2.084;2023-02-16T07:58:16;102543.63;;;9.42;100.00
64192;BME280;50497;50.720;-2.084;2023-02-16T08:00:56;102551.59;;;9.46;100.00
64192;BME280;50497;50.720;-2.084;2023-02-16T08:03:29;102538.28;;;9.42;100.00
64192;BME280;50497;50.720;-2.084;2023-02-16T08:06:01;102554.25;;;9.47;100.00
64192;BME280;50497;50.720;-2.084;2023-02-16T08:08:31;102549.78;;;9.48;100.00
64192;BME280;50497;50.720;-2.084;2023-02-16T08:11:09;102548.88;;;9.52;100.00
64192;BME280;50497;50.720;-2.084;2023-02-16T08:13:35;102554.22;;;9.50;100.00
64192;BME280;50497;50.720;-2.084;2023-02-16T08:16:08;102567.53;;;9.55;100.00
64192;BME280;50497;50.720;-2.084;2023-02-16T08:18:34;102568.38;;;9.58;100.00
64192;BME280;50497;50.720;-2.084;2023-02-16T08:21:12;102571.06;;;9.57;100.00
64192;BME280;50497;50.720;-2.084;2023-02-16T08:24:02;102584.41;;;9.57;100.00
64192;BME280;50497;50.720;-2.084;2023-02-16T08:26:36;102581.72;;;9.60;100.00
64192;BME280;50497;50.720;-2.084;2023-02-16T08:29:06;102574.56;;;9.59;100.00
64192;BME280;50497;50.720;-2.084;2023-02-16T08:31:56;102579.84;;;9.65;100.00
64192;BME280;50497;50.720;-2.084;2023-02-16T08:34:24;102586.06;;;9.66;100.00
64192;BME280;50497;50.720;-2.084;2023-02-16T08:36:54;102572.75;;;9.62;100.00
64192;BME280;50497;50.720;-2.084;2023-02-16T08:39:24;102590.53;;;9.67;100.00
64192;BME280;50497;50.720;-2.084;2023-02-16T08:41:54;102596.66;;;9.73;100.00
64192;BME280;50497;50.720;-2.084;2023-02-16T08:44:21;102598.53;;;9.68;100.00
64192;BME280;50497;50.720;-2.084;2023-02-16T08:46:57;102589.53;;;9.72;100.00
64192;BME280;50497;50.720;-2.084;2023-02-16T08:49:23;102596.66;;;9.73;100.00
64192;BME280;50497;50.720;-2.084;2023-02-16T08:51:55;102598.47;;;9.73;100.00
64192;BME280;50497;50.720;-2.084;2023-02-16T08:54:26;102612.66;;;9.76;100.00
64192;BME280;50497;50.720;-2.084;2023-02-16T08:57:02;102610.88;;;9.75;100.00
64192;BME280;50497;50.720;-2.084;2023-02-16T08:59:30;102615.31;;;9.78;100.00
64192;BME280;50497;50.720;-2.084;2023-02-16T09:02:09;102612.56;;;9.83;100.00
64192;BME280;50497;50.720;-2.084;2023-02-16T09:04:35;102616.13;;;9.83;100.00
64192;BME280;50497;50.720;-2.084;2023-02-16T09:07:02;98820.69;;;9.84;100.00
64192;BME280;50497;50.720;-2.084;2023-02-16T09:09:29;98952.19;;;9.88;100.00
64192;BME280;50497;50.720;-2.084;2023-02-16T09:11:54;99012.47;;;9.92;100.00
64192;BME280;50497;50.720;-2.084;2023-02-16T09:14:27;99048.81;;;9.94;100.00
64192;BME280;50497;50.720;-2.084;2023-02-16T09:17:00;99056.81;;;9.94;100.00
64192;BME280;50497;50.720;-2.084;2023-02-16T09:19:27;99086.00;;;9.85;100.00
64192;BME280;50497;50.720;-2.084;2023-02-16T09:21:53;99124.75;;;10.03;100.00
64192;BME280;50497;50.720;-2.084;2023-02-16T09:24:30;99146.88;;;10.05;100.00
64192;BME280;50497;50.720;-2.084;2023-02-16T09:26:56;99159.50;;;10.03;100.00
64192;BME280;50497;50.720;-2.084;2023-02-16T09:29:22;99159.91;;;9.97;100.00
64192;BME280;50497;50.720;-2.084;2023-02-16T09:31:50;99168.03;;;10.08;100.00
64192;BME280;50497;50.720;-2.084;2023-02-16T09:34:22;99194.09;;;10.17;100.00
64192;BME280;50497;50.720;-2.084;2023-02-16T09:36:51;99201.16;;;10.31;100.00
64192;BME280;50497;50.720;-2.084;2023-02-16T09:39:20;99218.38;;;10.27;100.00
64192;BME280;50497;50.720;-2.084;2023-02-16T09:41:56;99238.59;;;10.31;100.00
64192;BME280;50497;50.720;-2.084;2023-02-16T09:49:50;99275.16;;;10.44;100.00
64192;BME280;50497;50.720;-2.084;2023-02-16T09:52:46;99279.16;;;10.51;100.00
64192;BME280;50497;50.720;-2.084;2023-02-16T09:55:15;99296.56;;;10.44;100.00
64192;BME280;50497;50.720;-2.084;2023-02-16T10:06:26;99312.19;;;10.63;100.00
64192;BME280;50497;50.720;-2.084;2023-02-16T10:09:13;99324.78;;;10.61;100.00
64192;BME280;50497;50.720;-2.084;2023-02-16T10:11:54;99333.06;;;10.58;100.00
64192;BME280;50497;50.720;-2.084;2023-02-16T10:17:13;99356.34;;;10.68;100.00
64192;BME280;50497;50.720;-2.084;2023-02-16T10:19:57;99355.09;;;10.74;100.00
64192;BME280;50497;50.720;-2.084;2023-02-16T10:22:51;99362.88;;;10.77;100.00
64192;BME280;50497;50.720;-2.084;2023-02-16T10:43:03;99413.81;;;10.88;100.00
64192;BME280;50497;50.720;-2.084;2023-02-16T10:45:49;99435.75;;;10.94;100.00
64192;BME280;50497;50.720;-2.084;2023-02-16T10:48:31;99441.88;;;10.96;100.00
64192;BME280;50497;50.720;-2.084;2023-02-16T10:51:18;99428.94;;;10.89;100.00
64192;BME280;50497;50.720;-2.084;2023-02-16T10:53:56;99447.00;;;10.99;100.00
64192;BME280;50497;50.720;-2.084;2023-02-16T10:56:56;99428.38;;;10.84;100.00
64192;BME280;50497;50.720;-2.084;2023-02-16T10:59:48;99452.69;;;10.94;100.00
64192;BME280;50497;50.720;-2.084;2023-02-16T11:02:25;99458.16;;;10.93;100.00
64192;BME280;50497;50.720;-2.084;2023-02-16T11:05:02;99473.22;;;10.94;100.00
64192;BME280;50497;50.720;-2.084;2023-02-16T11:07:59;99490.16;;;10.94;100.00
64192;BME280;50497;50.720;-2.084;2023-02-16T11:10:49;99492.94;;;10.93;100.00
64192;BME280;50497;50.720;-2.084;2023-02-16T11:13:38;99510.38;;;10.98;100.00
64192;BME280;50497;50.720;-2.084;2023-02-16T11:16:25;99531.44;;;10.90;100.00
64192;BME280;50497;50.720;-2.084;2023-02-16T11:19:05;99530.41;;;11.05;100.00
64192;BME280;50497;50.720;-2.084;2023-02-16T11:21:53;99544.75;;;11.04;100.00
64192;BME280;50497;50.720;-2.084;2023-02-16T11:24:36;99522.81;;;10.99;100.00
64192;BME280;50497;50.720;-2.084;2023-02-16T11:27:18;99549.13;;;11.05;100.00
64192;BME280;50497;50.720;-2.084;2023-02-16T11:29:50;99564.66;;;11.00;100.00
64192;BME280;50497;50.720;-2.084;2023-02-16T11:32:39;99573.56;;;11.01;100.00
64192;BME280;50497;50.720;-2.084;2023-02-16T11:35:12;99582.13;;;11.06;100.00
64192;BME280;50497;50.720;-2.084;2023-02-16T11:37:39;99584.81;;;11.06;100.00
64192;BME280;50497;50.720;-2.084;2023-02-16T11:40:23;99592.41;;;11.12;100.00
64192;BME280;50497;50.720;-2.084;2023-02-16T11:42:57;99591.44;;;11.13;100.00
64192;BME280;50497;50.720;-2.084;2023-02-16T11:45:34;99594.66;;;11.18;100.00
64192;BME280;50497;50.720;-2.084;2023-02-16T11:48:07;99584.50;;;11.23;100.00
64192;BME280;50497;50.720;-2.084;2023-02-16T11:50:55;99577.44;;;11.35;100.00
64192;BME280;50497;50.720;-2.084;2023-02-16T11:53:27;99588.16;;;11.35;100.00
64192;BME280;50497;50.720;-2.084;2023-02-16T11:58:49;99589.22;;;11.33;100.00
64192;BME280;50497;50.720;-2.084;2023-02-16T12:04:26;99590.28;;;11.17;100.00
64192;BME280;50497;50.720;-2.084;2023-02-16T12:07:16;99592.97;;;11.17;100.00
64192;BME280;50497;50.720;-2.084;2023-02-16T12:10:07;99597.38;;;11.31;100.00
64192;BME280;50497;50.720;-2.084;2023-02-16T12:12:51;99591.16;;;11.31;100.00
64192;BME280;50497;50.720;-2.084;2023-02-16T12:15:44;99573.56;;;11.65;100.00
64192;BME280;50497;50.720;-2.084;2023-02-16T12:18:23;99556.44;;;11.68;100.00
64192;BME280;50497;50.720;-2.084;2023-02-16T12:21:00;99544.41;;;11.73;100.00
64192;BME280;50497;50.720;-2.084;2023-02-16T12:23:40;99512.47;;;11.83;100.00
64192;BME280;50497;50.720;-2.084;2023-02-16T12:31:39;99358.03;;;12.64;100.00
64192;BME280;50497;50.720;-2.084;2023-02-16T12:34:27;99324.38;;;12.60;100.00
64192;BME280;50497;50.720;-2.084;2023-02-16T12:37:10;99262.16;;;12.78;100.00
64192;BME280;50497;50.720;-2.084;2023-02-16T12:45:15;99070.94;;;13.18;100.00
64192;BME280;50497;50.720;-2.084;2023-02-16T12:48:00;99007.03;;;12.90;100.00
64192;BME280;50497;50.720;-2.084;2023-02-16T12:50:33;98938.81;;;12.93;100.00
64192;BME280;50497;50.720;-2.084;2023-02-16T12:53:10;98911.75;;;12.75;100.00
64192;BME280;50497;50.720;-2.084;2023-02-16T12:55:51;98914.56;;;12.73;100.00
64192;BME280;50497;50.720;-2.084;2023-02-16T12:58:33;98924.09;;;12.87;100.00
64192;BME280;50497;50.720;-2.084;2023-02-16T13:11:48;99030.94;;;14.48;100.00
64192;BME280;50497;50.720;-2.084;2023-02-16T13:14:26;99064.31;;;14.76;100.00
64192;BME280;50497;50.720;-2.084;2023-02-16T13:17:03;99065.72;;;15.09;100.00
64192;BME280;50497;50.720;-2.084;2023-02-16T13:19:34;99077.44;;;14.59;100.00
64192;BME280;50497;50.720;-2.084;2023-02-16T13:22:27;99062.88;;;14.91;100.00
64192;BME280;50497;50.720;-2.084;2023-02-16T13:31:09;100502.03;;;13.96;100.00
64192;BME280;50497;50.720;-2.084;2023-02-16T13:42:20;100334.72;;;13.09;100.00
64192;BME280;50497;50.720;-2.084;2023-02-16T13:45:21;100313.69;;;13.16;100.00
64192;BME280;50497;50.720;-2.084;2023-02-16T13:47:56;100267.84;;;13.33;100.00
64192;BME280;50497;50.720;-2.084;2023-02-16T13:50:25;100266.16;;;13.30;100.00
64192;BME280;50497;50.720;-2.084;2023-02-16T13:52:54;100268.41;;;13.24;100.00
64192;BME280;50497;50.720;-2.084;2023-02-16T13:55:29;100279.63;;;12.89;100.00
64192;BME280;50497;50.720;-2.084;2023-02-16T14:00:42;100206.59;;;12.69;100.00
64192;BME280;50497;50.720;-2.084;2023-02-16T14:05:49;100192.91;;;12.60;100.00
64192;BME280;50497;50.720;-2.084;2023-02-16T14:08:26;100166.94;;;12.60;100.00
64192;BME280;50497;50.720;-2.084;2023-02-16T14:16:08;100133.94;;;12.31;100.00
64192;BME280;50497;50.720;-2.084;2023-02-16T14:18:44;100104.34;;;12.32;100.00
64192;BME280;50497;50.720;-2.084;2023-02-16T14:21:35;100089.16;;;12.46;100.00
64192;BME280;50497;50.720;-2.084;2023-02-16T14:24:10;100079.09;;;12.49;100.00
64192;BME280;50497;50.720;-2.084;2023-02-16T14:26:58;100047.09;;;12.86;100.00
64192;BME280;50497;50.720;-2.084;2023-02-16T14:29:54;100063.53;;;12.82;100.00
64192;BME280;50497;50.720;-2.084;2023-02-16T14:32:46;100089.38;;;12.43;100.00
64192;BME280;50497;50.720;-2.084;2023-02-16T14:35:29;100087.88;;;12.51;100.00
64192;BME280;50497;50.720;-2.084;2023-02-16T14:38:02;100072.03;;;12.61;100.00
64192;BME280;50497;50.720;-2.084;2023-02-16T14:54:54;100074.28;;;12.27;100.00
64192;BME280;50497;50.720;-2.084;2023-02-16T14:57:33;100070.84;;;12.25;100.00
64192;BME280;50497;50.720;-2.084;2023-02-16T15:02:38;100067.34;;;12.37;100.00
64192;BME280;50497;50.720;-2.084;2023-02-16T15:05:19;100071.34;;;12.17;100.00
64192;BME280;50497;50.720;-2.084;2023-02-16T15:07:52;100054.84;;;12.24;100.00
64192;BME280;50497;50.720;-2.084;2023-02-16T15:10:24;100058.88;;;12.16;100.00
64192;BME280;50497;50.720;-2.084;2023-02-16T15:12:52;100045.06;;;12.23;100.00
64192;BME280;50497;50.720;-2.084;2023-02-16T15:15:43;100031.75;;;12.21;100.00
64192;BME280;50497;50.720;-2.084;2023-02-16T15:18:18;100012.88;;;12.23;100.00
64192;BME280;50497;50.720;-2.084;2023-02-16T15:20:56;100003.25;;;12.33;100.00
64192;BME280;50497;50.720;-2.084;2023-02-16T15:23:29;100029.44;;;12.29;100.00